createdAt,value
2023-01-04T00:00:37.182Z,10.73
2023-01-04T00:03:06.642Z,10.85
2023-01-04T00:05:35.866Z,10.75
2023-01-04T00:08:05.367Z,11.68
2023-01-04T00:10:37.120Z,10.45
2023-01-04T00:13:06.257Z,12.05
2023-01-04T00:15:35.521Z,11.80
2023-01-04T00:18:05.127Z,12.67
2023-01-04T00:20:34.436Z,12.80
2023-01-04T00:23:03.931Z,12.88
2023-01-04T00:25:32.675Z,12.98
2023-01-04T00:28:04.276Z,13.55
2023-01-04T00:30:33.582Z,13.40
2023-01-04T00:33:02.674Z,12.27
2023-01-04T00:35:45.381Z,13.30
2023-01-04T00:38:16.787Z,13.65
2023-01-04T00:40:45.517Z,13.38
2023-01-04T00:43:16.187Z,13.68
2023-01-04T00:45:45.580Z,14.27
2023-01-04T00:48:15.004Z,15.00
2023-01-04T00:50:45.503Z,15.15
2023-01-04T00:53:16.938Z,14.27
2023-01-04T00:55:45.927Z,13.93
2023-01-04T00:58:16.683Z,14.27
2023-01-04T01:00:45.987Z,13.50
2023-01-04T01:03:15.415Z,16.17
2023-01-04T01:05:47.907Z,14.10
2023-01-04T01:08:26.374Z,14.48
2023-01-04T01:10:55.762Z,14.80
2023-01-04T01:13:26.449Z,13.18
2023-01-04T01:15:55.897Z,14.65
2023-01-04T01:18:25.051Z,14.53
2023-01-04T01:20:54.148Z,13.68
2023-01-04T01:23:23.387Z,15.30
2023-01-04T01:25:52.281Z,15.35
2023-01-04T01:28:23.753Z,12.15
2023-01-04T01:30:54.494Z,17.10
2023-01-04T01:33:23.713Z,15.82
2023-01-04T01:35:52.875Z,15.40
2023-01-04T01:38:22.071Z,15.25
2023-01-04T01:40:51.010Z,15.02
2023-01-04T01:43:21.285Z,14.40
2023-01-04T01:45:53.797Z,15.05
2023-01-04T01:48:26.355Z,15.98
2023-01-04T01:50:57.121Z,14.50
2023-01-04T01:53:27.380Z,14.50
2023-01-04T01:56:00.216Z,16.77
2023-01-04T01:58:33.272Z,16.33
2023-01-04T02:01:04.597Z,16.75
2023-01-04T02:03:34.960Z,15.93
2023-01-04T02:06:06.106Z,15.57
2023-01-04T02:08:35.421Z,15.95
2023-01-04T02:11:04.937Z,16.10
2023-01-04T02:13:48.466Z,15.93
2023-01-04T02:16:25.885Z,15.38
2023-01-04T02:18:59.876Z,15.32
2023-01-04T02:21:36.509Z,15.27
2023-01-04T02:24:35.571Z,16.30
2023-01-04T02:27:40.676Z,16.77
2023-01-04T02:31:00.873Z,17.48
2023-01-04T02:36:11.831Z,17.15
2023-01-04T02:38:50.681Z,16.80
2023-01-04T02:41:28.844Z,16.98
2023-01-04T02:44:18.113Z,16.38
2023-01-04T02:46:50.023Z,16.38
2023-01-04T02:49:38.286Z,17.90
2023-01-04T02:52:07.359Z,18.02
2023-01-04T02:54:36.718Z,18.48
2023-01-04T02:57:16.506Z,17.00
2023-01-04T03:00:16.912Z,16.60
2023-01-04T03:03:25.158Z,17.42
2023-01-04T03:06:19.136Z,17.98
2023-01-04T03:08:58.076Z,17.65
2023-01-04T03:11:50.596Z,19.90
2023-01-04T03:14:31.515Z,17.92
2023-01-04T03:17:03.773Z,20.00
2023-01-04T03:19:50.711Z,19.35
2023-01-04T03:22:40.904Z,18.60
2023-01-04T03:25:28.177Z,19.35
2023-01-04T03:28:14.700Z,19.83
2023-01-04T03:31:06.995Z,19.00
2023-01-04T03:33:53.594Z,19.15
2023-01-04T03:36:30.771Z,20.15
2023-01-04T03:39:22.040Z,19.52
2023-01-04T03:42:11.754Z,21.73
2023-01-04T03:45:09.527Z,20.75
2023-01-04T03:48:01.108Z,22.42
2023-01-04T03:50:34.731Z,24.17
2023-01-04T03:53:05.488Z,24.27
2023-01-04T03:55:36.736Z,22.90
2023-01-04T03:58:05.906Z,21.15
2023-01-04T04:00:35.425Z,21.33
2023-01-04T04:03:11.098Z,19.13
2023-01-04T04:05:59.202Z,22.38
2023-01-04T04:08:31.762Z,20.52
2023-01-04T04:11:23.462Z,22.05
2023-01-04T04:13:52.632Z,21.45
2023-01-04T04:16:22.017Z,21.98
2023-01-04T04:18:51.165Z,19.90
2023-01-04T04:21:20.196Z,22.70
2023-01-04T04:23:49.498Z,22.48
2023-01-04T04:26:20.029Z,23.90
2023-01-04T04:31:17.786Z,20.45
2023-01-04T04:33:46.989Z,23.02
2023-01-04T04:36:16.157Z,24.30
2023-01-04T04:38:45.136Z,23.40
2023-01-04T04:41:32.429Z,23.15
2023-01-04T04:44:02.747Z,21.40
2023-01-04T04:46:31.930Z,22.77
2023-01-04T04:49:01.037Z,18.45
2023-01-04T04:51:30.237Z,23.50
2023-01-04T04:53:59.336Z,23.08
2023-01-04T04:56:28.356Z,24.52
2023-01-04T04:58:58.066Z,24.55
2023-01-04T05:01:28.693Z,22.58
2023-01-04T05:03:58.014Z,23.95
2023-01-04T05:06:27.210Z,24.33
2023-01-04T05:08:56.467Z,23.25
2023-01-04T05:11:39.323Z,23.88
2023-01-04T05:14:08.080Z,23.20
2023-01-04T05:16:38.742Z,23.25
2023-01-04T05:19:07.842Z,24.17
2023-01-04T05:21:36.939Z,22.65
2023-01-04T05:24:06.394Z,23.83
2023-01-04T05:26:35.575Z,22.80
2023-01-04T05:29:04.798Z,22.65
2023-01-04T05:31:32.572Z,21.23
2023-01-04T05:34:03.277Z,24.60
2023-01-04T05:36:32.733Z,26.02
2023-01-04T05:39:01.760Z,27.17
2023-01-04T05:41:49.253Z,19.73
2023-01-04T05:44:18.636Z,26.02
2023-01-04T05:46:47.372Z,26.17
2023-01-04T05:49:18.104Z,24.42
2023-01-04T05:51:47.240Z,22.88
2023-01-04T05:54:21.087Z,22.77
2023-01-04T05:56:51.891Z,26.30
2023-01-04T05:59:20.971Z,26.05
2023-01-04T06:01:49.762Z,24.58
2023-01-04T06:04:20.407Z,25.03
2023-01-04T06:06:49.490Z,23.73
2023-01-04T06:09:18.732Z,22.10
2023-01-04T06:11:47.828Z,24.42
2023-01-04T06:14:16.879Z,22.50
2023-01-04T06:16:45.631Z,26.20
2023-01-04T06:19:14.745Z,26.13
2023-01-04T06:21:47.448Z,24.30
2023-01-04T06:24:16.506Z,27.70
2023-01-04T06:26:45.600Z,28.13
2023-01-04T06:29:14.937Z,28.77
2023-01-04T06:31:43.892Z,22.63
2023-01-04T06:34:13.328Z,23.00
2023-01-04T06:36:46.177Z,25.63
2023-01-04T06:39:15.623Z,24.65
2023-01-04T06:41:46.035Z,28.05
2023-01-04T06:44:16.320Z,32.20
2023-01-04T06:46:45.062Z,31.00
2023-01-04T06:49:14.557Z,31.00
2023-01-04T06:51:43.699Z,29.70
2023-01-04T06:54:14.589Z,34.42
2023-01-04T06:56:44.302Z,33.47
2023-01-04T06:59:14.315Z,33.03
2023-01-04T07:01:43.090Z,29.70
2023-01-04T07:04:12.401Z,31.00
2023-01-04T07:06:41.480Z,33.35
2023-01-04T07:09:10.463Z,31.65
2023-01-04T07:11:40.899Z,33.42
2023-01-04T07:14:10.011Z,36.03
2023-01-04T07:16:38.708Z,34.78
2023-01-04T07:19:09.622Z,35.08
2023-01-04T07:22:15.885Z,26.15
2023-01-04T07:25:22.368Z,27.40
2023-01-04T07:28:50.661Z,25.25
2023-01-04T07:31:59.891Z,27.65
2023-01-04T07:35:10.000Z,23.50
2023-01-04T07:38:19.209Z,29.20
2023-01-04T07:41:28.519Z,26.98
2023-01-04T07:44:39.269Z,34.93
2023-01-04T07:47:48.793Z,20.05
2023-01-04T07:50:58.029Z,24.93
2023-01-04T07:54:07.264Z,34.30
2023-01-04T07:57:16.445Z,30.73
2023-01-04T08:00:27.104Z,30.17
2023-01-04T08:03:36.591Z,34.40
2023-01-04T08:06:46.898Z,21.87
2023-01-04T08:13:05.106Z,22.45
2023-01-04T08:16:21.065Z,25.85
2023-01-04T08:19:30.586Z,29.25
2023-01-04T08:21:59.908Z,22.90
2023-01-04T08:24:29.082Z,23.30
2023-01-04T08:26:58.216Z,28.45
2023-01-04T08:29:34.368Z,26.33
2023-01-04T08:32:05.121Z,26.58
2023-01-04T08:34:34.405Z,26.88
2023-01-04T08:37:03.625Z,25.88
2023-01-04T08:39:36.027Z,23.25
2023-01-04T08:42:18.859Z,20.65
2023-01-04T08:44:52.864Z,26.38
2023-01-04T08:47:26.095Z,22.13
2023-01-04T08:49:55.001Z,26.88
2023-01-04T08:52:24.145Z,25.17
2023-01-04T08:54:54.202Z,23.08
2023-01-04T08:57:23.419Z,23.00
2023-01-04T08:59:52.489Z,22.48
2023-01-04T09:02:23.848Z,20.48
2023-01-04T09:04:55.434Z,18.77
2023-01-04T09:07:24.562Z,19.50
2023-01-04T09:09:53.553Z,17.48
2023-01-04T09:12:22.681Z,24.20
2023-01-04T09:14:51.782Z,22.35
2023-01-04T09:17:20.825Z,22.50
2023-01-04T09:19:49.497Z,20.27
2023-01-04T09:22:20.040Z,23.20
2023-01-04T09:24:49.166Z,19.67
2023-01-04T09:27:18.271Z,20.45
2023-01-04T09:29:48.614Z,21.15
2023-01-04T09:32:17.947Z,19.35
2023-01-04T09:34:46.697Z,17.13
2023-01-04T09:37:15.782Z,22.58
2023-01-04T09:39:47.716Z,17.48
2023-01-04T09:42:21.273Z,20.48
2023-01-04T09:47:45.186Z,19.90
2023-01-04T09:50:17.721Z,18.85
2023-01-04T09:52:57.678Z,18.88
2023-01-04T09:55:38.883Z,15.48
2023-01-04T09:58:17.987Z,19.35
2023-01-04T10:00:48.914Z,15.30
2023-01-04T10:03:22.562Z,17.92
2023-01-04T10:05:53.177Z,16.13
2023-01-04T10:11:02.999Z,16.55
2023-01-04T10:13:50.529Z,20.27
2023-01-04T10:17:01.049Z,17.20
2023-01-04T10:21:08.548Z,17.75
2023-01-04T10:22:21.051Z,19.23
2023-01-04T10:24:59.992Z,18.08
2023-01-04T10:27:42.681Z,19.63
2023-01-04T10:30:25.837Z,16.42
2023-01-04T10:33:01.304Z,18.67
2023-01-04T10:35:31.041Z,19.95
2023-01-04T10:38:02.257Z,17.73
2023-01-04T10:40:39.455Z,18.60
2023-01-04T10:43:17.280Z,19.63
2023-01-04T10:45:52.605Z,17.00
2023-01-04T10:48:28.164Z,20.13
2023-01-04T10:51:09.437Z,22.92
2023-01-04T10:53:44.810Z,13.43
2023-01-04T10:56:25.382Z,22.45
2023-01-04T10:59:04.480Z,11.75
2023-01-04T11:01:36.410Z,24.85
2023-01-04T11:04:11.373Z,24.42
2023-01-04T11:06:44.134Z,18.27
2023-01-04T11:09:25.171Z,19.60
2023-01-04T11:11:57.239Z,24.35
2023-01-04T11:14:33.350Z,21.80
2023-01-04T11:17:07.457Z,23.70
2023-01-04T11:19:36.729Z,23.70
2023-01-04T11:22:12.296Z,22.02
2023-01-04T11:25:00.345Z,18.50
2023-01-04T11:27:33.736Z,23.15
2023-01-04T11:30:06.333Z,20.98
2023-01-04T11:32:40.824Z,18.13
2023-01-04T11:35:10.421Z,22.02
2023-01-04T11:37:41.132Z,23.38
2023-01-04T11:40:19.571Z,22.33
2023-01-04T11:42:49.973Z,21.05
2023-01-04T11:45:24.206Z,20.38
2023-01-04T11:47:55.217Z,20.13
2023-01-04T11:53:27.943Z,24.42
2023-01-04T11:56:16.699Z,21.75
2023-01-04T11:58:47.296Z,23.75
2023-01-04T12:01:26.998Z,18.77
2023-01-04T12:03:56.764Z,25.20
2023-01-04T12:06:33.517Z,22.38
2023-01-04T12:09:02.710Z,24.00
2023-01-04T12:14:03.496Z,25.55
2023-01-04T12:16:46.387Z,22.08
2023-01-04T12:19:16.665Z,24.17
2023-01-04T12:24:19.408Z,23.25
2023-01-04T12:26:49.352Z,23.10
2023-01-04T12:29:41.725Z,22.48
2023-01-04T12:32:46.432Z,24.70
2023-01-04T12:36:06.996Z,24.08
2023-01-04T12:39:09.326Z,19.05
2023-01-04T12:42:20.023Z,26.05
2023-01-04T12:45:17.098Z,25.05
2023-01-04T12:48:09.744Z,26.15
2023-01-04T12:51:32.329Z,24.65
2023-01-04T12:54:04.230Z,24.88
2023-01-04T12:57:12.833Z,24.15
2023-01-04T12:59:55.064Z,24.65
2023-01-04T13:02:26.638Z,26.85
2023-01-04T13:05:33.756Z,25.13
2023-01-04T13:07:49.190Z,26.58
2023-01-04T13:10:23.286Z,21.58
2023-01-04T13:12:59.797Z,26.17
2023-01-04T13:15:41.533Z,22.98
2023-01-04T13:18:30.200Z,21.10
2023-01-04T13:21:01.837Z,24.38
2023-01-04T13:23:31.268Z,22.70
2023-01-04T13:26:33.168Z,20.73
2023-01-04T13:29:19.299Z,20.45
2023-01-04T13:31:51.870Z,21.33
2023-01-04T13:34:23.983Z,22.90
2023-01-04T13:37:06.894Z,23.02
2023-01-04T13:39:36.781Z,22.90
2023-01-04T13:42:07.164Z,23.38
2023-01-04T13:47:44.109Z,20.17
2023-01-04T13:50:28.616Z,20.10
2023-01-04T13:53:06.924Z,17.92
2023-01-04T13:55:39.049Z,20.25
2023-01-04T13:58:16.407Z,18.25
2023-01-04T14:00:46.815Z,14.15
2023-01-04T14:03:35.416Z,20.25
2023-01-04T14:06:14.599Z,20.55
2023-01-04T14:08:49.696Z,18.58
2023-01-04T14:11:35.678Z,19.00
2023-01-04T14:14:04.610Z,16.52
2023-01-04T14:16:33.813Z,18.55
2023-01-04T14:19:34.181Z,15.05
2023-01-04T14:27:34.152Z,12.88
2023-01-04T14:30:05.644Z,15.57
2023-01-04T14:32:34.625Z,12.23
2023-01-04T14:35:12.160Z,12.60
2023-01-04T14:37:40.830Z,15.45
2023-01-04T14:40:19.978Z,14.68
2023-01-04T14:42:48.974Z,12.30
2023-01-04T14:45:18.097Z,13.90
2023-01-04T14:47:49.099Z,14.13
2023-01-04T14:50:18.940Z,13.95
2023-01-04T14:52:52.661Z,13.90
2023-01-04T14:55:24.943Z,17.70
2023-01-04T14:57:57.023Z,14.52
2023-01-04T15:00:26.094Z,10.30
2023-01-04T15:02:55.274Z,14.38
2023-01-04T15:05:24.581Z,12.03
2023-01-04T15:07:54.029Z,17.63
2023-01-04T15:10:26.305Z,10.13
2023-01-04T15:12:55.447Z,12.13
2023-01-04T15:15:24.421Z,15.38
2023-01-04T15:17:53.497Z,10.43
2023-01-04T15:22:52.535Z,14.82
2023-01-04T15:25:21.539Z,15.57
2023-01-04T15:27:52.897Z,15.18
2023-01-04T15:30:24.190Z,18.17
2023-01-04T15:32:53.189Z,14.85
2023-01-04T15:35:22.361Z,12.45
2023-01-04T15:37:51.585Z,14.20
2023-01-04T15:40:20.959Z,17.83
2023-01-04T15:42:59.338Z,16.08
2023-01-04T15:45:29.676Z,10.82
2023-01-04T15:50:35.705Z,18.33
2023-01-04T15:53:04.746Z,11.80
2023-01-04T15:55:36.524Z,15.25
2023-01-04T15:58:07.425Z,11.80
2023-01-04T16:00:39.366Z,10.18
2023-01-04T16:03:08.530Z,14.73
2023-01-04T16:05:37.758Z,12.90
2023-01-04T16:08:07.437Z,12.32
2023-01-04T16:10:36.844Z,10.93
2023-01-04T16:13:07.707Z,11.55
2023-01-04T16:15:38.199Z,13.63
2023-01-04T16:18:07.403Z,11.98
2023-01-04T16:20:36.490Z,11.85
2023-01-04T16:23:05.598Z,8.07
2023-01-04T16:25:34.690Z,8.52
2023-01-04T16:28:03.895Z,8.93
2023-01-04T16:30:36.170Z,6.82
2023-01-04T16:33:06.366Z,6.50
2023-01-04T16:35:36.384Z,8.13
2023-01-04T16:38:05.748Z,5.90
2023-01-04T16:40:34.550Z,5.20
2023-01-04T16:43:03.933Z,8.52
2023-01-04T16:45:34.488Z,9.50
2023-01-04T16:48:03.617Z,10.38
2023-01-04T16:50:35.016Z,7.13
2023-01-04T16:53:04.137Z,9.13
2023-01-04T16:55:32.873Z,8.35
2023-01-04T16:58:01.979Z,9.18
2023-01-04T17:00:31.046Z,9.13
2023-01-04T17:03:01.500Z,5.95
2023-01-04T17:05:30.673Z,10.27
2023-01-04T17:07:59.822Z,8.30
2023-01-04T17:10:29.841Z,9.65
2023-01-04T17:12:59.064Z,10.40
2023-01-04T17:15:44.553Z,10.38
2023-01-04T17:18:17.766Z,6.80
2023-01-04T17:20:54.057Z,9.20
2023-01-04T17:23:23.447Z,9.40
2023-01-04T17:25:52.556Z,7.97
2023-01-04T17:28:25.011Z,7.83
2023-01-04T17:30:54.481Z,9.95
2023-01-04T17:33:25.561Z,9.85
2023-01-04T17:35:58.065Z,8.30
2023-01-04T17:38:27.405Z,10.38
2023-01-04T17:40:56.121Z,9.15
2023-01-04T17:43:25.317Z,8.65
2023-01-04T17:45:54.574Z,9.63
2023-01-04T17:48:25.255Z,9.48
2023-01-04T17:50:54.640Z,9.73
2023-01-04T17:53:25.160Z,8.85
2023-01-04T17:55:54.129Z,9.20
2023-01-04T17:58:24.429Z,10.27
2023-01-04T18:03:22.942Z,9.88
2023-01-04T18:06:07.107Z,10.52
2023-01-04T18:08:44.364Z,10.73
2023-01-04T18:11:14.065Z,10.85
2023-01-04T18:13:45.462Z,9.40
2023-01-04T18:16:25.306Z,8.52
2023-01-04T18:18:57.982Z,10.38
2023-01-04T18:21:30.810Z,7.25
2023-01-04T18:27:20.512Z,13.30
2023-01-04T18:29:45.387Z,10.00
2023-01-04T18:32:18.268Z,12.05
2023-01-04T18:34:47.475Z,8.65
2023-01-04T18:37:19.678Z,8.75
2023-01-04T18:39:49.218Z,12.10
2023-01-04T18:42:18.506Z,10.23
2023-01-04T18:44:49.927Z,10.37
2023-01-04T18:47:22.387Z,12.40
2023-01-04T18:49:51.642Z,11.15
2023-01-04T18:52:22.386Z,10.67
2023-01-04T18:54:51.516Z,9.30
2023-01-04T18:57:20.807Z,8.57
2023-01-04T18:59:51.753Z,10.80
2023-01-04T19:02:22.253Z,10.73
2023-01-04T19:07:22.043Z,12.00
2023-01-04T19:09:51.601Z,11.98
2023-01-04T19:12:22.295Z,11.85
2023-01-04T19:14:51.824Z,10.23
2023-01-04T19:17:24.669Z,10.80
2023-01-04T19:19:53.734Z,11.00
2023-01-04T19:22:24.582Z,9.90
2023-01-04T19:24:53.837Z,11.30
2023-01-04T19:27:23.187Z,11.73
2023-01-04T19:29:53.602Z,11.30
2023-01-04T19:34:51.529Z,6.70
2023-01-04T19:37:20.887Z,11.20
2023-01-04T19:39:51.757Z,7.97
2023-01-04T19:42:20.907Z,9.65
2023-01-04T19:44:50.145Z,12.20
2023-01-04T19:47:19.361Z,10.73
2023-01-04T19:49:50.182Z,12.68
2023-01-04T19:54:48.539Z,11.18
2023-01-04T19:57:19.208Z,11.23
2023-01-04T19:59:48.681Z,10.55
2023-01-04T20:02:18.091Z,11.07
2023-01-04T20:04:47.339Z,12.07
2023-01-04T20:07:16.871Z,10.93
2023-01-04T20:09:46.126Z,11.60
2023-01-04T20:12:15.653Z,11.33
2023-01-04T20:14:47.058Z,10.77
2023-01-04T20:17:16.568Z,11.93
2023-01-04T20:19:45.472Z,13.05
2023-01-04T20:22:14.832Z,11.63
2023-01-04T20:24:44.129Z,11.85
2023-01-04T20:27:13.582Z,11.50
2023-01-04T20:29:42.802Z,11.88
2023-01-04T20:32:13.752Z,10.98
2023-01-04T20:34:43.841Z,12.10
2023-01-04T20:37:13.276Z,10.23
2023-01-04T20:39:42.499Z,11.53
2023-01-04T20:42:28.856Z,11.75
2023-01-04T20:44:58.236Z,10.82
2023-01-04T20:47:29.285Z,10.48
2023-01-04T20:49:58.045Z,12.85
2023-01-04T20:52:27.276Z,10.50
2023-01-04T20:54:56.350Z,10.48
2023-01-04T20:57:25.561Z,10.60
2023-01-04T20:59:55.233Z,11.70
2023-01-04T21:02:24.492Z,12.90
2023-01-04T21:04:54.744Z,12.88
2023-01-04T21:07:23.811Z,13.43
2023-01-04T21:09:52.893Z,12.95
2023-01-04T21:12:22.062Z,11.88
2023-01-04T21:14:51.195Z,12.63
2023-01-04T21:17:20.535Z,12.57
2023-01-04T21:19:49.920Z,11.25
2023-01-04T21:22:22.754Z,12.45
2023-01-04T21:24:51.944Z,10.95
2023-01-04T21:27:21.054Z,12.52
2023-01-04T21:29:50.219Z,11.07
2023-01-04T21:32:19.330Z,12.45
2023-01-04T21:34:48.328Z,9.20
2023-01-04T21:37:17.439Z,11.88
2023-01-04T21:39:47.968Z,9.82
2023-01-04T21:42:16.979Z,11.38
2023-01-04T21:44:46.972Z,10.40
2023-01-04T21:47:16.051Z,8.82
2023-01-04T21:49:44.912Z,10.43
2023-01-04T21:52:14.249Z,10.98
2023-01-04T21:54:43.411Z,10.68
2023-01-04T21:57:14.984Z,10.98
2023-01-04T21:59:44.045Z,10.38
2023-01-04T22:02:17.131Z,10.03
2023-01-04T22:04:46.626Z,11.60
2023-01-04T22:07:15.769Z,11.10
2023-01-04T22:09:44.859Z,12.07
2023-01-04T22:12:17.303Z,11.00
2023-01-04T22:14:47.170Z,11.40
2023-01-04T22:17:16.445Z,11.02
2023-01-04T22:19:45.311Z,12.13
2023-01-04T22:22:14.373Z,12.63
2023-01-04T22:24:43.583Z,10.98
2023-01-04T22:27:13.271Z,10.68
2023-01-04T22:29:43.845Z,10.70
2023-01-04T22:32:13.512Z,9.13
2023-01-04T22:34:42.578Z,9.57
2023-01-04T22:37:11.810Z,8.77
2023-01-04T22:39:40.982Z,8.15
2023-01-04T22:44:40.107Z,8.57
2023-01-04T22:47:10.640Z,9.07
2023-01-04T22:49:39.849Z,9.05
2023-01-04T22:52:09.086Z,9.77
2023-01-04T22:54:40.536Z,8.02
2023-01-04T22:57:09.832Z,8.27
2023-01-04T22:59:38.927Z,9.32
2023-01-04T23:02:09.711Z,8.77
2023-01-04T23:07:07.514Z,8.80
2023-01-04T23:09:36.859Z,8.02
2023-01-04T23:12:06.770Z,9.65
2023-01-04T23:14:36.245Z,8.68
2023-01-04T23:17:05.628Z,10.05
2023-01-04T23:19:37.611Z,9.05
2023-01-04T23:22:07.412Z,9.10
2023-01-04T23:24:38.040Z,11.05
2023-01-04T23:27:07.631Z,11.20
2023-01-04T23:29:37.199Z,10.90
2023-01-04T23:32:09.394Z,10.70
2023-01-04T23:34:39.738Z,12.07
2023-01-04T23:37:08.982Z,12.00
2023-01-04T23:39:38.292Z,10.82
2023-01-04T23:42:08.620Z,10.75
2023-01-04T23:47:10.320Z,10.65
2023-01-04T23:49:40.511Z,11.52
2023-01-04T23:52:12.153Z,10.73
2023-01-04T23:54:41.970Z,11.07
2023-01-04T23:57:11.001Z,10.57
2023-01-04T23:59:40.112Z,11.23
